M I D A S
Marine Information and Data Acquisition System
Tripno 1125 of the Zeeleeuw from 2006-06-06 08:59:31 to 2006-06-06 14:23:31
Back to CruiseResearch ActivitiesStationsMapUnderway DataData graphs

EquipmentUnitsComment
TimeDGPSUTC
LatitudeDGPSDM.mWGS84
LongitudeDGPSDM.mWGS84
TemperatureSBE03/SBE38deg celciusITS90
ConductivitySBE21S/mITS90
SalinitySBE21 Practical Salinity Units
ChlorophylAChelsea fluorimeterµg/lCalibrated in Aceton
Missing or incorrect values are displayed as -999
Sea surface data collected by the RV Zeeleeuw from 2006-06-06 07:47:55 to 2006-06-06 14:36:42
Time Latitude Longitude Temperature Conductivity Salinity ChlorophylA
2006-06-06 07:49:01 51°13.602 2°56.098 20.6649 0.058862 0.294154 7.207879
2006-06-06 07:50:01 51°13.602 2°56.099 20.6572 0.058862 0.294183 7.207879
2006-06-06 07:51:00 51°13.602 2°56.099 20.6579 0.058862 0.294208 7.207879
2006-06-06 07:52:01 51°13.602 2°56.1 20.6624 0.058862 0.294233 7.17417
2006-06-06 07:53:01 51°13.602 2°56.099 20.6648 0.058862 0.294267 7.207879
2006-06-06 07:54:01 51°13.603 2°56.099 20.6739 0.058862 0.294292 7.17417
2006-06-06 07:55:01 51°13.602 2°56.099 20.6672 0.058862 0.294321 7.207879
2006-06-06 07:56:01 51°13.602 2°56.099 20.6651 0.058862 0.294342 7.207879
2006-06-06 07:57:01 51°13.603 2°56.099 20.676 0.058862 0.294367 7.207879
2006-06-06 07:58:01 51°13.603 2°56.099 20.6925 0.058862 0.294392 7.207879
2006-06-06 07:59:01 51°13.603 2°56.1 20.7012 0.058862 0.294421 7.207879
2006-06-06 08:00:01 51°13.602 2°56.1 20.7002 0.058862 0.294446 7.207879
2006-06-06 08:01:01 51°13.602 2°56.1 20.7086 0.058862 0.294467 7.17417
2006-06-06 08:02:01 51°13.602 2°56.099 20.7202 0.058862 0.294497 7.207879
2006-06-06 08:03:01 51°13.602 2°56.1 20.7313 0.058862 0.294522 7.17417
2006-06-06 08:04:01 51°13.603 2°56.1 20.7484 0.058862 0.294547 7.17417
2006-06-06 08:05:01 51°13.603 2°56.1 20.752 0.058862 0.294576 7.17417
2006-06-06 08:06:01 51°13.603 2°56.101 20.7607 0.058862 0.294606 7.207879
2006-06-06 08:07:01 51°13.603 2°56.1 20.7775 0.058862 0.294635 7.17417
2006-06-06 08:08:01 51°13.603 2°56.1 20.7875 0.058966 0.295197 7.207879
2006-06-06 08:09:01 51°13.603 2°56.1 20.8039 0.058862 0.294689 7.14046
2006-06-06 08:10:01 51°13.603 2°56.1 20.8109 0.058862 0.294719 7.17417
2006-06-06 08:11:01 51°13.603 2°56.1 20.8169 0.058966 0.295273 7.14046
2006-06-06 08:12:01 51°13.604 2°56.1 20.8121 0.058862 0.294769 7.17417
2006-06-06 08:13:01 51°13.603 2°56.1 20.8186 0.058862 0.29479 7.17417
2006-06-06 08:14:01 51°13.603 2°56.1 20.8301 0.058966 0.295352 7.17417
2006-06-06 08:15:01 51°13.603 2°56.1 20.8372 0.058966 0.295378 7.207879
2006-06-06 08:16:01 51°13.603 2°56.1 20.8496 0.058966 0.295407 7.17417
2006-06-06 08:17:01 51°13.603 2°56.099 20.8532 0.058966 0.295428 7.14046
2006-06-06 08:18:01 51°13.603 2°56.099 20.8795 0.058966 0.295458 7.17417
2006-06-06 08:19:01 51°13.603 2°56.099 20.8774 0.058966 0.295487 7.17417
2006-06-06 08:20:01 51°13.603 2°56.099 20.8852 0.058966 0.295512 7.17417
2006-06-06 08:21:01 51°13.603 2°56.099 20.8258 0.058966 0.295538 7.14046
2006-06-06 08:22:01 51°13.603 2°56.099 20.8638 0.058966 0.295567 7.17417
2006-06-06 08:23:01 51°13.603 2°56.099 20.8827 0.058966 0.295597 7.17417
2006-06-06 08:24:01 51°13.602 2°56.098 20.8923 0.058966 0.295618 7.17417
2006-06-06 08:25:01 51°13.601 2°56.098 20.8979 0.058966 0.295647 7.17417
2006-06-06 08:26:01 51°13.602 2°56.098 20.8911 0.058966 0.295681 7.17417
2006-06-06 08:27:01 51°13.602 2°56.098 20.9096 0.058966 0.295706 7.17417
2006-06-06 08:28:01 51°13.602 2°56.098 20.9127 0.058966 0.295732 7.14046
2006-06-06 08:29:01 51°13.603 2°56.099 20.9163 0.058966 0.295761 7.14046
2006-06-06 08:30:01 51°13.603 2°56.099 20.9308 0.058966 0.295791 7.17417
2006-06-06 08:31:01 51°13.604 2°56.099 20.9485 0.058966 0.29582 7.14046
2006-06-06 08:32:01 51°13.603 2°56.099 20.9501 0.058966 0.295854 7.17417
2006-06-06 08:33:01 51°13.604 2°56.099 20.96 0.058966 0.295879 7.14046
2006-06-06 08:34:01 51°13.604 2°56.099 20.9695 0.058862 0.295371 7.17417
2006-06-06 08:35:01 51°13.605 2°56.1 20.9801 0.058966 0.295934 7.14046
2006-06-06 08:36:01 51°13.604 2°56.1 21.0018 0.058966 0.29596 7.17417
2006-06-06 08:37:01 51°13.604 2°56.099 21.0527 0.058966 0.295989 7.17417
2006-06-06 08:38:01 51°13.603 2°56.1 21.0475 0.058966 0.296015 7.14046
2006-06-06 08:39:01 51°13.603 2°56.1 21.053 0.058862 0.29551 7.17417
2006-06-06 08:40:01 51°13.603 2°56.1 21.0568 0.058862 0.295544 7.14046
2006-06-06 08:41:01 51°13.601 2°56.099 21.0614 0.058862 0.295574 7.14046
2006-06-06 08:42:01 51°13.602 2°56.1 21.0652 0.058862 0.295595 7.14046
2006-06-06 08:43:01 51°13.602 2°56.1 21.0748 0.058862 0.295633 7.14046
2006-06-06 08:44:01 51°13.6 2°56.1 21.079 0.058862 0.295658 7.106751
2006-06-06 08:45:01 51°13.601 2°56.1 21.087 0.058862 0.295688 7.14046
2006-06-06 08:46:01 51°13.602 2°56.1 21.0889 0.058862 0.295717 7.14046
2006-06-06 08:47:01 51°13.601 2°56.099 21.1032 0.058862 0.295751 7.106751
2006-06-06 08:48:01 51°13.6 2°56.098 21.1136 0.058862 0.295772 7.14046
2006-06-06 08:49:01 51°13.604 2°56.055 21.1304 0.058862 0.295806 7.106751
2006-06-06 08:50:01 51°13.621 2°55.952 21.1821 0.058862 0.295832 7.14046
2006-06-06 08:51:01 51°13.663 2°55.847 21.1588 0.058862 0.295865 7.14046
2006-06-06 08:52:01 51°13.712 2°55.773 21.205 0.058862 0.295891 7.106751
2006-06-06 08:53:01 51°13.713 2°55.765 21.1496 0.058862 0.295937 7.14046
2006-06-06 08:54:01 51°13.72 2°55.72 21.2322 0.058862 0.295959 7.106751
2006-06-06 08:55:01 51°13.726 2°55.735 21.1733 0.058862 0.295988 7.14046
2006-06-06 08:56:01 51°13.707 2°55.714 21.2449 0.058862 0.29601 7.106751
2006-06-06 08:57:01 51°13.749 2°55.692 21.135 0.058758 0.295513 7.14046
2006-06-06 08:58:01 51°13.832 2°55.632 21.0694 0.058758 0.295546 7.14046
2006-06-06 08:59:01 51°13.93 2°55.56 21.0131 0.058758 0.295585 7.14046
2006-06-06 09:00:01 51°14.02 2°55.496 21.1713 0.058758 0.295618 7.14046
2006-06-06 09:01:01 51°14.115 2°55.426 21.1707 0.058758 0.295657 7.106751
2006-06-06 09:02:01 51°14.222 2°55.331 21.1848 0.058758 0.295699 7.106751
2006-06-06 09:03:01 51°14.317 2°55.155 21.05 0.058758 0.295737 7.106751
2006-06-06 09:04:01 51°14.409 2°54.939 21.07 0.058758 0.295788 7.106751
2006-06-06 09:05:01 51°14.496 2°54.687 21.0323 0.058758 0.29583 7.106751
2006-06-06 09:06:01 51°14.568 2°54.389 20.9315 0.058758 0.295864 7.106751
2006-06-06 09:07:01 51°14.664 2°54.101 20.9293 0.058654 0.295384 7.106751
2006-06-06 09:08:01 51°14.757 2°53.812 20.9449 0.058654 0.295435 7.106751
2006-06-06 09:09:01 51°14.847 2°53.512 20.9824 0.058654 0.295494 7.14046
2006-06-06 09:10:01 51°14.94 2°53.211 20.9841 0.05855 0.295026 7.14046
2006-06-06 09:11:01 51°15.036 2°52.914 21.015 0.05855 0.295085 7.14046
2006-06-06 09:12:01 51°15.13 2°52.62 21.0313 0.05855 0.295132 7.14046
2006-06-06 09:13:01 51°15.221 2°52.327 21.0166 0.05855 0.295187 7.073042
2006-06-06 09:14:01 51°15.301 2°52.033 20.9554 0.058446 0.294714 7.106751
2006-06-06 09:15:01 51°15.37 2°51.735 20.9067 0.058446 0.294778 7.14046
2006-06-06 09:16:01 51°15.435 2°51.431 21.0235 0.058446 0.294837 7.106751
2006-06-06 09:17:01 51°15.495 2°51.125 20.9929 0.058343 0.294381 7.14046
2006-06-06 09:18:01 51°15.552 2°50.814 20.981 0.058343 0.294444 7.073042
2006-06-06 09:19:01 51°15.612 2°50.504 20.9545 0.058343 0.294508 7.106751
2006-06-06 09:20:01 51°15.673 2°50.196 20.9933 0.058343 0.294576 7.106751
2006-06-06 09:21:01 51°15.73 2°49.889 21.001 0.058343 0.294631 7.106751
2006-06-06 09:22:01 51°15.79 2°49.585 20.9021 0.058239 0.294153 7.106751
2006-06-06 09:23:01 51°15.849 2°49.276 20.964 0.058239 0.294212 7.073042
2006-06-06 09:24:01 51°15.904 2°48.968 20.9195 0.058239 0.294285 7.073042
2006-06-06 09:25:01 51°15.959 2°48.66 20.9232 0.058239 0.294344 7.073042
2006-06-06 09:26:01 51°16.014 2°48.351 20.9481 0.058239 0.29442 7.073042
2006-06-06 09:27:01 51°16.067 2°48.044 20.9195 0.058239 0.294497 7.106751
2006-06-06 09:28:01 51°16.12 2°47.739 20.9654 0.058239 0.294561 7.106751
2006-06-06 09:29:01 51°16.176 2°47.436 20.9314 0.058239 0.294646 7.073042
2006-06-06 09:30:01 51°16.231 2°47.132 20.9245 0.058239 0.294714 7.106751
2006-06-06 09:31:01 51°16.285 2°46.827 20.929 0.058239 0.294795 7.106751
2006-06-06 09:32:01 51°16.338 2°46.52 20.9416 0.058239 0.294872 7.039332
2006-06-06 09:33:01 51°16.397 2°46.215 20.947 0.058239 0.294961 7.073042
2006-06-06 09:34:01 51°16.471 2°45.913 20.9152 0.058239 0.295034 7.073042
2006-06-06 09:35:01 51°16.546 2°45.61 20.9444 0.058239 0.295115 7.073042
2006-06-06 09:36:01 51°16.619 2°45.308 20.9764 0.058239 0.295205 7.073042
2006-06-06 09:37:01 51°16.692 2°45.004 20.9699 0.058135 0.294746 7.073042
2006-06-06 09:38:01 51°16.764 2°44.697 20.9678 0.058239 0.295376 7.039332
2006-06-06 09:39:01 51°16.834 2°44.383 20.9965 0.058135 0.294917 7.073042
2006-06-06 09:40:01 51°16.913 2°44.075 21.0046 0.058135 0.29502 7.039332
2006-06-06 09:41:01 51°16.991 2°43.77 21.0254 0.058135 0.295106 7.039332
2006-06-06 09:42:00 51°17.072 2°43.471 21.0326 0.058135 0.295183 7.073042
2006-06-06 09:42:58 51°17.155 2°43.184 21.0088 0.058031 0.294728 7.039332
2006-06-06 09:44:01 51°17.242 2°42.875 21.0593 0.058031 0.294805 7.039332
2006-06-06 09:45:01 51°17.328 2°42.581 21.0455 0.058031 0.294908 7.039332
2006-06-06 09:46:01 51°17.414 2°42.279 21.0774 0.057927 0.294457 7.005623
2006-06-06 09:46:59 51°17.507 2°41.99 21.0481 0.057927 0.294543 7.039332
2006-06-06 09:48:01 51°17.605 2°41.68 21.0641 0.057823 0.294104 7.073042
2006-06-06 09:49:01 51°17.7 2°41.381 21.098 0.057823 0.294194 7.005623
2006-06-06 09:50:01 51°17.792 2°41.081 21.0998 0.05772 0.293751 7.039332
2006-06-06 09:51:01 51°17.892 2°40.793 21.1074 0.05772 0.293854 7.005623
2006-06-06 09:51:59 51°17.991 2°40.519 21.0957 0.05772 0.293944 7.005623
2006-06-06 09:53:01 51°18.099 2°40.23 21.1198 0.057616 0.293492 7.039332
2006-06-06 09:53:59 51°18.218 2°39.979 21.1501 0.057616 0.29359 7.005623
2006-06-06 09:55:01 51°18.355 2°39.717 21.145 0.057512 0.293134 7.005623
2006-06-06 09:56:01 51°18.499 2°39.476 21.1603 0.057512 0.293245 6.971913
2006-06-06 09:57:01 51°18.641 2°39.232 21.1733 0.057408 0.292792 7.005623
2006-06-06 09:58:01 51°18.78 2°38.984 21.1697 0.057408 0.292899 7.005623
2006-06-06 09:59:01 51°18.924 2°38.737 21.1953 0.057304 0.292472 6.971913
2006-06-06 10:00:01 51°19.076 2°38.502 21.1782 0.057304 0.292587 6.971913
2006-06-06 10:00:59 51°19.221 2°38.275 21.2119 0.0572 0.292164 6.971913
2006-06-06 10:02:01 51°19.381 2°38.041 21.222 0.0572 0.292283 6.971913
2006-06-06 10:02:59 51°19.535 2°37.833 21.2059 0.057096 0.291859 6.971913
2006-06-06 10:04:01 51°19.7 2°37.616 21.2365 0.057096 0.291983 6.971913
2006-06-06 10:05:01 51°19.857 2°37.402 21.2344 0.056993 0.291568 6.971913
2006-06-06 10:06:01 51°19.996 2°37.187 21.2635 0.056993 0.291692 6.938204
2006-06-06 10:07:01 51°20.078 2°37.09 21.2901 0.056889 0.291275 6.938204
2006-06-06 10:08:01 51°20.121 2°37.012 21.3155 0.056889 0.291404 6.938204
2006-06-06 10:09:01 51°20.103 2°36.94 21.2484 0.056785 0.290961 6.938204
2006-06-06 10:09:59 51°20.089 2°36.896 21.2784 0.056785 0.291068 6.904494
2006-06-06 10:11:01 51°20.086 2°36.874 21.3189 0.056785 0.291167 6.904494
2006-06-06 10:12:01 51°20.086 2°36.876 21.3229 0.056681 0.290724 6.904494
2006-06-06 10:13:01 51°20.086 2°36.878 21.3387 0.056681 0.290797 6.904494
2006-06-06 10:14:01 51°20.087 2°36.88 21.3532 0.056681 0.290874 6.904494
2006-06-06 10:15:01 51°20.098 2°36.867 21.3265 0.056577 0.290396 6.870785
2006-06-06 10:16:01 51°20.094 2°36.872 21.3456 0.056577 0.290486 6.870785
2006-06-06 10:17:01 51°20.092 2°36.878 16.2945 0.056577 0.290503 8.623674
2006-06-06 10:18:01 51°20.138 2°36.898 17.4856 4.082157 31.813238 8.084324
2006-06-06 10:19:01 51°20.138 2°36.992 14.2079 3.994563 30.381425 7.544973
2006-06-06 10:20:01 51°20.081 2°37.002 13.7409 4.128871 33.510818 9.567537
2006-06-06 10:21:01 51°20.072 2°36.919 13.6847 1.547278 11.568637 10.679947
2006-06-06 10:21:59 51°20.103 2°36.877 13.5864 3.276899 26.357072 9.500118
2006-06-06 10:23:01 51°20.079 2°36.893 13.4666 3.732751 30.5962 8.421418
2006-06-06 10:23:59 51°20.072 2°36.903 13.3676 4.095788 34.112076 11.590101
2006-06-06 10:25:01 51°20.102 2°36.894 13.4031 3.63267 29.888353 11.69123
2006-06-06 10:26:01 51°20.123 2°36.891 13.357 3.790598 31.368877 14.185725
2006-06-06 10:27:01 51°20.134 2°36.887 13.3689 3.306492 26.966174 14.050888
2006-06-06 10:27:59 51°20.139 2°36.881 13.322 4.06554 33.930697 13.814922
2006-06-06 10:29:01 51°20.139 2°36.875 13.3225 3.763836 31.147545 12.635093
2006-06-06 10:30:01 51°20.142 2°36.839 13.3134 4.039613 33.716312 11.69123
2006-06-06 10:31:01 51°20.118 2°36.805 13.3221 4.01611 33.51229 9.769794
2006-06-06 10:32:01 51°20.084 2°36.824 13.309 3.975535 33.136824 11.994614
2006-06-06 10:33:01 51°20.07 2°36.883 13.2925 4.008839 33.473522 10.477691
2006-06-06 10:34:01 51°20.089 2°36.958 13.3285 3.960255 33.024685 14.623947
2006-06-06 10:35:01 51°20.152 2°36.929 13.3623 3.999248 33.397631 11.219298
2006-06-06 10:36:01 51°20.135 2°36.844 13.3525 3.767524 31.206525 12.500255
2006-06-06 10:37:01 51°20.076 2°36.907 13.3333 2.67674 21.39232 15.972324
2006-06-06 10:38:01 51°20.066 2°36.992 13.2675 3.543555 29.171232 17.961178
2006-06-06 10:39:01 51°20.045 2°37.063 13.3092 4.023071 33.878928 10.646238
2006-06-06 10:40:01 51°20.006 2°37.078 13.3401 4.049525 34.126308 10.781076
2006-06-06 10:41:01 51°20.002 2°37.089 13.3465 4.046468 34.055365 11.017042
2006-06-06 10:42:01 51°20.006 2°37.109 13.3179 4.035085 33.954643 11.253007
2006-06-06 10:43:01 51°20.007 2°37.124 13.3033 4.032872 33.957965 11.488973
2006-06-06 10:44:01 51°20.004 2°37.134 13.2941 4.054268 34.174405 11.758648
2006-06-06 10:44:59 51°20.003 2°37.134 13.3135 4.05079 34.142368 11.960905
2006-06-06 10:45:59 51°20.002 2°37.132 13.3494 4.051105 34.121086 12.163161
2006-06-06 10:46:59 51°20.002 2°37.131 13.3654 4.035401 33.947973 12.365418
2006-06-06 10:48:01 51°20.002 2°37.132 13.374 4.034558 33.929736 12.500255
2006-06-06 10:48:59 51°20.003 2°37.131 13.3824 4.028129 33.860473 12.668802
2006-06-06 10:49:59 51°20.004 2°37.13 13.3838 4.023281 33.812252 12.837349
2006-06-06 10:50:59 51°20.006 2°37.127 13.382 4.043938 34.004018 13.005896
2006-06-06 10:51:59 51°20.009 2°37.124 13.3831 4.057534 34.135134 13.140734
2006-06-06 10:52:59 51°20.009 2°37.121 13.3826 4.057534 34.131675 13.241862
2006-06-06 10:53:59 51°20.01 2°37.12 13.3826 4.049735 34.059126 13.3767
2006-06-06 10:54:59 51°20.009 2°37.12 13.3873 4.044043 34.002251 13.477828
2006-06-06 10:55:59 51°20.009 2°37.121 13.3849 4.048575 34.046862 13.612665
2006-06-06 10:56:59 51°20.008 2°37.123 13.3823 4.050789 34.068332 13.713794
2006-06-06 10:57:59 51°20.007 2°37.123 13.3886 4.050262 34.062694 13.781212
2006-06-06 10:58:59 51°20.006 2°37.123 13.3901 4.045202 34.009688 13.91605
2006-06-06 11:00:01 51°20.005 2°37.124 13.3937 4.059326 34.140894 13.983469
2006-06-06 11:01:00 51°20.004 2°37.124 13.3997 4.048891 34.038106 14.084597
2006-06-06 11:01:59 51°20.003 2°37.125 13.4062 4.055953 34.098864 14.152016
2006-06-06 11:02:59 51°20.001 2°37.125 13.4046 4.061855 34.155654 14.219435
2006-06-06 11:03:59 51°19.998 2°37.127 13.4043 4.047416 34.015991 14.253144
2006-06-06 11:04:59 51°19.995 2°37.128 13.3997 4.048153 34.028425 14.354272
2006-06-06 11:06:01 51°19.994 2°37.127 13.4038 4.062277 34.16238 14.421691
2006-06-06 11:06:59 51°19.991 2°37.126 13.4095 4.062593 34.157739 14.48911
2006-06-06 11:08:00 51°19.991 2°37.122 13.4105 4.062171 34.156547 14.522819
2006-06-06 11:09:00 51°19.99 2°37.12 13.4016 4.06312 34.163378 14.556529
2006-06-06 11:09:59 51°19.989 2°37.117 13.3994 4.063647 34.169709 14.590238
2006-06-06 11:11:01 51°19.986 2°37.116 13.4055 4.062382 34.161294 14.623947
2006-06-06 11:11:59 51°19.984 2°37.114 13.4016 4.062487 34.160208 14.623947
2006-06-06 11:12:59 51°19.982 2°37.112 13.4002 4.06312 34.168913 14.623947
2006-06-06 11:13:59 51°19.981 2°37.11 13.4036 4.063331 34.171584 14.657657
2006-06-06 11:15:01 51°19.98 2°37.107 13.3998 4.060801 34.14645 14.725076
2006-06-06 11:16:00 51°19.978 2°37.105 13.3959 4.06312 34.170297 14.657657
2006-06-06 11:16:59 51°19.977 2°37.102 13.4048 4.063541 34.17564 14.725076
2006-06-06 11:17:59 51°19.977 2°37.099 13.402 4.064806 34.181287 14.758785
2006-06-06 11:18:59 51°19.975 2°37.095 13.41 4.065017 34.182574 14.792494
2006-06-06 11:19:59 51°19.973 2°37.092 13.4059 4.062698 34.155962 14.792494
2006-06-06 11:20:59 51°19.972 2°37.09 13.4034 4.06449 34.178318 14.792494
2006-06-06 11:21:59 51°19.97 2°37.087 13.3991 4.064068 34.179897 14.859913
2006-06-06 11:23:00 51°19.969 2°37.083 13.3981 4.065228 34.191477 14.826204
2006-06-06 11:24:00 51°19.969 2°37.08 13.3974 4.059009 34.133776 14.859913
2006-06-06 11:25:00 51°19.969 2°37.077 13.3996 4.062171 34.162774 14.893623
2006-06-06 11:26:01 51°19.969 2°37.074 13.4058 4.337607 36.385514 14.859913
2006-06-06 11:27:00 51°19.969 2°37.073 13.4049 4.063752 34.173467 14.859913
2006-06-06 11:27:59 51°19.968 2°37.073 13.406 4.062593 34.162581 14.893623
2006-06-06 11:29:01 51°19.968 2°37.073 13.4043 4.066703 34.201871 14.893623
2006-06-06 11:30:00 51°19.969 2°37.072 13.4011 4.065755 34.192963 14.893623
2006-06-06 11:31:01 51°19.969 2°37.07 13.4048 4.064174 34.180194 14.927332
2006-06-06 11:31:59 51°19.969 2°37.07 13.3995 4.065755 34.194348 14.961042
2006-06-06 11:33:00 51°19.969 2°37.07 13.401 4.062804 34.165944 14.961042
2006-06-06 11:34:01 51°19.97 2°37.068 13.401 4.067125 34.20583 15.02846
2006-06-06 11:34:59 51°19.97 2°37.067 13.4085 4.066176 34.195537 15.02846
2006-06-06 11:36:01 51°19.971 2°37.067 13.4123 4.066703 34.192869 15.06217
2006-06-06 11:36:59 51°19.971 2°37.069 13.4148 4.066703 34.190792 15.095879
2006-06-06 11:37:59 51°19.969 2°37.072 13.4142 4.066914 34.192079 15.095879
2006-06-06 11:38:59 51°19.966 2°37.074 13.4214 4.064174 34.167046 15.129589
2006-06-06 11:39:58 51°19.966 2°37.076 13.4143 4.068495 34.203459 15.197007
2006-06-06 11:40:58 51°19.966 2°37.079 13.4143 4.067125 34.191981 15.163298
2006-06-06 11:42:01 51°19.965 2°37.079 13.412 4.065755 34.179811 15.197007
2006-06-06 11:42:59 51°19.965 2°37.077 13.4084 4.06723 34.196432 15.264426
2006-06-06 11:43:59 51°19.967 2°37.075 13.3987 4.067546 34.206326 15.264426
2006-06-06 11:45:00 51°19.968 2°37.072 13.3895 4.065966 34.200484 15.298136
2006-06-06 11:46:01 51°19.967 2°37.071 13.3819 4.064912 34.197513 15.331845
2006-06-06 11:47:01 51°19.968 2°37.07 13.3769 4.067758 34.230489 15.365554
2006-06-06 11:47:59 51°19.969 2°37.07 13.3712 4.066914 34.228115 15.365554
2006-06-06 11:48:59 51°19.968 2°37.071 13.3789 4.06702 34.231187 15.399264
2006-06-06 11:50:00 51°19.967 2°37.072 13.3789 4.067652 34.232273 15.399264
2006-06-06 11:51:01 51°19.967 2°37.074 13.3628 4.067863 34.234254 15.432973
2006-06-06 11:52:00 51°19.967 2°37.075 13.3502 4.067231 34.240804 15.466683
2006-06-06 11:52:59 51°19.967 2°37.077 13.3417 4.066282 34.244385 15.466683
2006-06-06 11:53:59 51°19.967 2°37.079 13.3336 4.065756 34.251241 15.500392
2006-06-06 11:54:59 51°19.966 2°37.079 13.3326 4.065123 34.249463 15.534101
2006-06-06 11:56:01 51°19.966 2°37.077 13.334 4.065229 34.251845 15.534101
2006-06-06 11:57:01 51°19.966 2°37.075 13.338 4.065966 34.253224 15.534101
2006-06-06 11:57:59 51°19.968 2°37.073 13.3516 4.066177 34.251732 15.567811
2006-06-06 11:58:59 51°19.969 2°37.069 13.3642 4.06702 34.247155 15.60152
2006-06-06 12:00:00 51°19.969 2°37.067 13.3645 4.068074 34.247342 15.63523
2006-06-06 12:01:00 51°19.969 2°37.068 13.358 4.067758 34.247841 15.668939
2006-06-06 12:01:59 51°19.968 2°37.072 13.3492 4.067652 34.251018 15.668939
2006-06-06 12:03:00 51°19.967 2°37.077 13.3437 4.067126 34.254399 15.736358
2006-06-06 12:03:59 51°19.967 2°37.081 13.3388 4.066599 34.256393 15.736358
2006-06-06 12:05:00 51°19.965 2°37.08 13.3327 4.066177 34.254512 15.770067
2006-06-06 12:05:59 51°19.965 2°37.078 13.3275 4.066072 34.256301 15.770067
2006-06-06 12:06:59 51°19.966 2°37.073 13.3361 4.066283 34.26037 15.803777
2006-06-06 12:08:01 51°19.969 2°37.067 13.3423 4.066704 34.262251 15.803777
2006-06-06 12:08:59 51°19.971 2°37.064 13.3578 4.067231 34.256086 15.871195
2006-06-06 12:09:59 51°19.971 2°37.063 13.3728 4.068179 34.249721 15.904905
2006-06-06 12:10:59 51°19.969 2°37.064 13.3838 4.068812 34.244557 15.904905
2006-06-06 12:11:59 51°19.969 2°37.068 13.3907 4.069444 34.241478 15.972324
2006-06-06 12:12:59 51°19.968 2°37.073 13.3934 4.06976 34.239592 16.006033
2006-06-06 12:14:01 51°19.967 2°37.075 13.3987 4.070181 34.238698 16.039742
2006-06-06 12:15:01 51°19.966 2°37.074 13.412 4.070603 34.240577 16.073452
2006-06-06 12:16:01 51°19.966 2°37.071 13.4237 4.071973 34.234726 16.039742
2006-06-06 12:17:01 51°19.968 2°37.069 13.4287 4.073027 34.232841 16.107161
2006-06-06 12:18:01 51°19.969 2°37.066 13.4309 4.073027 34.232841 16.140871
2006-06-06 12:19:01 51°19.969 2°37.065 13.4249 4.072921 34.231852 16.17458
2006-06-06 12:20:00 51°19.969 2°37.067 13.4273 4.072394 34.23314 16.241999
2006-06-06 12:21:01 51°19.968 2°37.07 13.4242 4.072816 34.235712 16.343127
2006-06-06 12:22:01 51°19.968 2°37.072 13.4276 4.072394 34.23314 16.343127
2006-06-06 12:23:01 51°19.967 2°37.073 13.4322 4.072816 34.234326 16.343127
2006-06-06 12:23:59 51°19.967 2°37.073 13.4384 4.073132 34.232445 16.343127
2006-06-06 12:24:59 51°19.968 2°37.069 13.4406 4.07387 34.234521 16.410546
2006-06-06 12:25:59 51°19.969 2°37.066 13.4427 4.074186 34.23264 16.376836
2006-06-06 12:26:59 51°19.97 2°37.064 13.4295 4.073975 34.238973 16.444255
2006-06-06 12:28:01 51°19.97 2°37.064 13.4207 4.073659 34.241548 16.477965
2006-06-06 12:29:01 51°19.969 2°37.067 13.4108 4.072922 34.241552 16.545383
2006-06-06 12:30:01 51°19.969 2°37.071 13.3976 4.071341 34.244039 16.579093
2006-06-06 12:31:01 51°19.968 2°37.072 13.407 4.07113 34.244834 16.612802
2006-06-06 12:32:01 51°19.967 2°37.071 13.4205 4.072289 34.243933 16.612802
2006-06-06 12:33:01 51°19.968 2°37.069 13.4237 4.073132 34.244918 16.612802
2006-06-06 12:34:01 51°19.969 2°37.066 13.4249 4.073343 34.243431 16.680221
2006-06-06 12:35:01 51°19.971 2°37.064 13.4113 4.073343 34.244124 16.680221
2006-06-06 12:36:01 51°19.971 2°37.063 13.4102 4.072711 34.249279 16.74764
2006-06-06 12:37:01 51°19.97 2°37.064 13.4064 4.072395 34.247003 16.74764
2006-06-06 12:38:01 51°19.969 2°37.066 13.412 4.072079 34.247501 16.815059
2006-06-06 12:39:01 51°19.969 2°37.069 13.4285 4.072922 34.245018 16.781349
2006-06-06 12:40:01 51°19.968 2°37.069 13.4308 4.074186 34.246495 16.815059
2006-06-06 12:40:59 51°19.967 2°37.068 13.4381 4.074608 34.245601 16.882477
2006-06-06 12:42:01 51°19.969 2°37.067 13.4382 4.074924 34.245797 16.882477
2006-06-06 12:42:59 51°19.97 2°37.066 13.4375 4.075345 34.248368 16.916187
2006-06-06 12:44:01 51°19.969 2°37.065 13.431 4.074924 34.247876 16.949896
2006-06-06 12:44:59 51°19.969 2°37.064 13.4307 4.074713 34.250055 16.949896
2006-06-06 12:46:01 51°19.969 2°37.065 13.4282 4.074608 34.252532 16.983606
2006-06-06 12:47:01 51°19.969 2°37.066 13.4405 4.074713 34.249362 17.017315
2006-06-06 12:48:00 51°19.968 2°37.066 13.4559 4.075135 34.245697 17.084734
2006-06-06 12:49:01 51°19.968 2°37.065 13.4544 4.076715 34.248064 17.084734
2006-06-06 12:50:01 51°19.969 2°37.065 13.4635 4.077137 34.245094 17.152153
2006-06-06 12:51:01 51°19.97 2°37.064 13.4673 4.077137 34.245094 17.185862
2006-06-06 12:51:59 51°19.97 2°37.063 13.468 4.077664 34.245883 17.219571
2006-06-06 12:53:01 51°19.97 2°37.063 13.4657 4.07798 34.248849 17.253281
2006-06-06 12:54:01 51°19.97 2°37.063 13.4671 4.077769 34.247564 17.28699
2006-06-06 12:54:59 51°19.97 2°37.062 13.4712 4.077348 34.24361 17.3207
2006-06-06 12:56:01 51°19.971 2°37.062 13.468 4.077875 34.249245 17.388118
2006-06-06 12:57:01 51°19.971 2°37.061 13.4627 4.077664 34.249345 17.421828
2006-06-06 12:57:59 51°19.971 2°37.061 13.4557 4.077348 34.248456 17.421828
2006-06-06 12:58:59 51°19.971 2°37.062 13.4529 4.077032 34.252415 17.455537
2006-06-06 13:00:01 51°19.97 2°37.064 13.4521 4.076926 34.252812 17.489247
2006-06-06 13:01:01 51°19.97 2°37.063 13.4665 4.076821 34.250438 17.522956
2006-06-06 13:02:01 51°19.97 2°37.063 13.4636 4.07798 34.253003 17.522956
2006-06-06 13:03:01 51°19.97 2°37.064 13.4637 4.078191 34.25498 17.556665
2006-06-06 13:03:59 51°19.97 2°37.064 13.4608 4.078402 34.254188 17.590375
2006-06-06 13:05:01 51°19.969 2°37.064 13.4539 4.077348 34.253304 17.624084
2006-06-06 13:05:59 51°19.978 2°37.073 13.4609 4.077348 34.256075 17.657794
2006-06-06 13:07:01 51°19.988 2°37.08 13.4586 4.078086 34.254684 17.657794
2006-06-06 13:08:00 51°19.991 2°37.08 13.4589 4.078086 34.256762 17.691503
2006-06-06 13:09:01 51°19.996 2°37.077 13.4362 4.078191 34.258443 17.86005
2006-06-06 13:10:01 51°19.997 2°37.069 13.4514 4.077348 34.260925 17.725212
2006-06-06 13:10:59 51°19.987 2°37.056 13.4241 4.077559 34.255281 17.792631
2006-06-06 13:12:01 51°19.973 2°37.039 13.4398 4.075556 34.250347 17.758922
2006-06-06 13:12:59 51°19.959 2°37.022 13.4418 4.074819 34.252431 17.893759
2006-06-06 13:14:00 51°19.943 2°37.004 13.4301 4.075029 34.250944 17.927469
2006-06-06 13:14:59 51°19.93 2°37.028 13.4657 4.075556 34.247575 17.961178
2006-06-06 13:16:00 51°19.896 2°37.19 13.4771 4.078296 34.247661 17.994888
2006-06-06 13:17:00 51°19.841 2°37.477 13.4748 4.078296 34.244892 18.096016
2006-06-06 13:18:00 51°19.782 2°37.79 13.5571 4.077347 34.222857 18.096016
2006-06-06 13:19:01 51°19.727 2°38.105 13.6367 4.078822 34.15529 18.197144
2006-06-06 13:20:00 51°19.674 2°38.41 13.6239 4.077135 34.09214 18.298272
2006-06-06 13:21:01 51°19.618 2°38.727 13.6058 4.07197 34.062421 18.331982
2006-06-06 13:21:59 51°19.565 2°39.028 13.6717 4.068281 34.027968 18.43311
2006-06-06 13:23:01 51°19.509 2°39.355 13.7094 4.074077 34.01982 18.567947
2006-06-06 13:23:59 51°19.455 2°39.658 13.6725 4.074604 34.022 18.669076
2006-06-06 13:25:01 51°19.397 2°39.985 13.6707 4.068702 33.989502 18.736494
2006-06-06 13:26:01 51°19.345 2°40.3 13.6545 4.066489 33.964764 18.770204
2006-06-06 13:27:01 51°19.293 2°40.61 13.6432 4.060377 33.957575 18.905042
2006-06-06 13:28:01 51°19.247 2°40.921 13.6643 4.060798 33.946482 18.905042
2006-06-06 13:28:59 51°19.201 2°41.222 13.7278 4.065224 33.937288 18.905042
2006-06-06 13:30:01 51°19.151 2°41.541 13.8188 4.068912 33.929434 19.00617
2006-06-06 13:31:00 51°19.103 2°41.848 13.8838 4.067119 33.824602 19.00617
2006-06-06 13:32:01 51°19.056 2°42.171 13.866 4.057106 33.693944 19.039879
2006-06-06 13:32:59 51°19.011 2°42.478 13.8084 4.051099 33.665144 19.073589
2006-06-06 13:34:00 51°18.963 2°42.799 13.7559 4.042879 33.638649 19.107298
2006-06-06 13:35:01 51°18.913 2°43.12 13.7096 4.039085 33.645173 19.141007
2006-06-06 13:36:01 51°18.859 2°43.432 13.7699 4.036872 33.640107 19.174717
2006-06-06 13:37:01 51°18.751 2°43.705 13.9792 4.035606 33.518137 19.208426
2006-06-06 13:38:01 51°18.593 2°43.908 13.985 4.030756 33.357288 19.343264
2006-06-06 13:39:01 51°18.424 2°44.088 13.902 4.018952 33.266849 19.376973
2006-06-06 13:39:58 51°18.255 2°44.246 13.8235 4.008414 33.248986 19.444392
2006-06-06 13:41:01 51°18.068 2°44.424 13.8968 4.004093 33.228906 19.478101
2006-06-06 13:42:01 51°17.885 2°44.597 13.9122 4.006938 33.208817 19.57923
2006-06-06 13:43:01 51°17.7 2°44.762 13.9354 4.007992 33.209289 19.680358
2006-06-06 13:43:59 51°17.521 2°44.928 13.9317 4.006305 33.167915 19.882614
2006-06-06 13:44:59 51°17.333 2°45.09 13.8911 3.999455 33.150888 19.983742
2006-06-06 13:46:01 51°17.143 2°45.266 13.9935 3.999349 33.114241 20.084871
2006-06-06 13:46:59 51°16.962 2°45.427 14.1192 4.004723 33.070989 20.185999
2006-06-06 13:48:01 51°16.768 2°45.603 13.9464 4.01347 33.11409 20.354546
2006-06-06 13:48:59 51°16.589 2°45.769 13.8426 4.006095 33.197712 20.69164
2006-06-06 13:50:00 51°16.403 2°45.946 14.7342 4.007781 33.194105 20.725349
2006-06-06 13:51:01 51°16.247 2°46.169 14.0708 2.672839 20.795164 30.737042
2006-06-06 13:52:00 51°16.162 2°46.455 14.0305 1.746136 13.214941 29.928016
2006-06-06 13:53:01 51°16.111 2°46.767 14.0439 3.710413 30.238588 41.861144
2006-06-06 13:54:01 51°16.055 2°47.073 14.0413 3.81019 31.121492 38.793589
2006-06-06 13:55:01 51°16.001 2°47.376 14.2345 3.829999 31.31334 37.00699
2006-06-06 13:56:00 51°15.947 2°47.672 14.3785 2.661483 20.87012 29.961725
2006-06-06 13:57:01 51°15.896 2°47.98 14.5172 3.810292 30.895335 34.478785
2006-06-06 13:58:01 51°15.84 2°48.282 14.651 3.901016 31.610251 36.872153
2006-06-06 13:58:59 51°15.788 2°48.573 14.6936 3.941586 31.870517 33.029281
2006-06-06 14:00:01 51°15.733 2°48.886 14.6146 2.620358 20.262804 34.984426
2006-06-06 14:00:59 51°15.676 2°49.176 14.5597 3.36271 26.695247 39.872289
2006-06-06 14:01:59 51°15.616 2°49.477 14.5652 3.90386 31.553563 31.647195
2006-06-06 14:02:58 51°15.559 2°49.773 14.6077 3.877727 31.325744 29.1527
2006-06-06 14:03:59 51°15.514 2°50.081 14.5739 3.224039 25.506616 40.209383
2006-06-06 14:04:59 51°15.497 2°50.39 14.5604 3.854017 31.104748 39.26552
2006-06-06 14:05:59 51°15.475 2°50.701 14.5664 3.762559 30.29647 36.973281
2006-06-06 14:07:01 51°15.454 2°51.023 14.5975 3.855493 31.131301 27.703195
2006-06-06 14:08:00 51°15.432 2°51.328 14.5726 3.849802 31.056032 28.411093
2006-06-06 14:09:01 51°15.409 2°51.644 14.6941 3.867716 31.221169 33.0967
2006-06-06 14:10:01 51°15.354 2°51.947 14.685 3.690809 29.578145 21.702922
2006-06-06 14:10:59 51°15.236 2°52.2 14.6851 3.79975 30.520666 37.411503
2006-06-06 14:11:59 51°15.101 2°52.448 14.7748 3.84095 30.904007 37.0407
2006-06-06 14:12:59 51°14.969 2°52.697 14.7672 3.740115 29.946262 40.479059
2006-06-06 14:14:01 51°14.85 2°52.945 14.7448 3.723047 29.791545 33.872016
2006-06-06 14:15:00 51°14.748 2°53.173 14.6729 3.188243 25.102597 38.422785
2006-06-06 14:16:01 51°14.661 2°53.384 14.5717 3.495195 27.829756 23.085007
2006-06-06 14:16:59 51°14.601 2°53.558 14.5548 3.839687 30.965229 31.512358
2006-06-06 14:17:59 51°14.55 2°53.734 14.6147 3.350706 26.642891 41.288084
2006-06-06 14:18:59 51°14.514 2°53.91 14.6364 3.742961 30.096547 43.614033
2006-06-06 14:19:59 51°14.475 2°54.088 14.6946 3.746754 30.117014 39.434067
2006-06-06 14:21:01 51°14.461 2°54.317 14.6683 3.708193 29.731808 42.973554
2006-06-06 14:22:01 51°14.456 2°54.595 15.1462 0.050452 0.304859 30.332529
2006-06-06 14:22:59 51°14.421 2°54.879 15.2896 0.042975 0.258389 30.332529
2006-06-06 14:24:01 51°14.324 2°55.153 15.3537 0.049829 0.300716 30.399947
2006-06-06 14:25:01 51°14.201 2°55.346 15.4225 0.04879 0.29406 30.366238
2006-06-06 14:25:59 51°14.095 2°55.437 15.5002 0.049206 0.296447 30.433657
2006-06-06 14:27:01 51°14.001 2°55.504 15.5783 0.048686 0.29297 30.501076
2006-06-06 14:28:00 51°13.91 2°55.572 15.6234 0.047129 0.283113 30.568494
2006-06-06 14:29:01 51°13.814 2°55.645 15.7461 0.045675 0.273904 30.703332
2006-06-06 14:29:59 51°13.74 2°55.729 15.8788 0.044533 0.266627 30.80446
2006-06-06 14:30:59 51°13.683 2°55.836 15.9343 0.043702 0.26128 30.939298
2006-06-06 14:32:01 51°13.632 2°55.94 16.0592 0.042768 0.255289 31.040426
2006-06-06 14:33:00 51°13.606 2°56.019 16.1606 0.042248 0.251902 31.107845
2006-06-06 14:34:01 51°13.603 2°56.084 16.2318 0.041729 0.248469 31.242683
2006-06-06 14:34:59 51°13.601 2°56.095 16.3602 0.041418 0.246355 31.343811
2006-06-06 14:36:02 51°13.601 2°56.099 16.4669 0.041002 0.243575 31.41123